In Rescue
 
Open Full Screen Window  High Contrast Mode
Wind Gusting 18 knots
12
May 25, 2022 8:03 PM CDT
Present Weather: Drizzle
Weather Information
Wind Direction
  050 °
Wind Speed
  12 kt (14 mph)
Wind Gust
  18 kt (21 mph)
Altimeter
29.97 in
Visibility
10 SM
Temperature
07° C
45° F
Dewpoint
07° C
45° F
Humidity
100%
1hr Rain Fall
00.00 in.
24hr Rain Fall
00.19 in.
Sky Condition
Overcast @ 2,700 ft
Broken @ 900 ft
IFR

METAR KCKC 260103Z AUTO 05012G18KT 10SM DZ BKN009 OVC027 07/07 A2997 RMK AO2

FAA Disclaimer: The data displayed is for advisory purposes only and is not to be used for flight planning or operations.